createdAt,value
2022-11-14T00:01:55.276Z,5.07
2022-11-14T00:04:41.915Z,5.47
2022-11-14T00:07:30.129Z,6.55
2022-11-14T00:10:16.284Z,4.65
2022-11-14T00:13:01.637Z,5.80
2022-11-14T00:15:49.009Z,5.97
2022-11-14T00:18:33.877Z,4.72
2022-11-14T00:21:20.681Z,4.38
2022-11-14T00:24:06.056Z,5.28
2022-11-14T00:26:50.908Z,5.50
2022-11-14T00:29:35.739Z,5.38
2022-11-14T00:32:20.888Z,4.63
2022-11-14T00:35:06.914Z,4.75
2022-11-14T00:37:53.093Z,4.97
2022-11-14T00:40:38.078Z,5.03
2022-11-14T00:43:23.361Z,4.97
2022-11-14T00:46:08.282Z,5.70
2022-11-14T00:48:53.504Z,5.20
2022-11-14T00:51:38.441Z,5.70
2022-11-14T00:54:25.067Z,5.75
2022-11-14T00:57:10.086Z,5.28
2022-11-14T00:59:55.284Z,6.03
2022-11-14T01:02:40.304Z,4.63
2022-11-14T01:05:25.944Z,5.40
2022-11-14T01:08:11.784Z,4.97
2022-11-14T01:10:58.228Z,5.38
2022-11-14T01:13:43.405Z,4.82
2022-11-14T01:16:28.420Z,5.00
2022-11-14T01:19:13.686Z,4.63
2022-11-14T01:22:01.781Z,5.45
2022-11-14T01:24:51.193Z,5.25
2022-11-14T01:27:37.362Z,5.03
2022-11-14T01:30:23.078Z,4.78
2022-11-14T01:33:08.703Z,5.43
2022-11-14T01:35:53.743Z,5.15
2022-11-14T01:38:38.891Z,4.75
2022-11-14T01:41:24.317Z,5.03
2022-11-14T01:44:14.828Z,5.35
2022-11-14T01:47:00.230Z,4.93
2022-11-14T01:49:47.637Z,5.82
2022-11-14T01:52:36.440Z,5.35
2022-11-14T01:55:21.782Z,4.53
2022-11-14T01:58:07.011Z,5.00
2022-11-14T02:00:53.287Z,4.57
2022-11-14T02:03:41.436Z,4.28
2022-11-14T02:06:29.745Z,4.68
2022-11-14T02:09:14.905Z,5.55
2022-11-14T02:12:02.489Z,5.03
2022-11-14T02:14:50.481Z,4.93
2022-11-14T02:17:36.826Z,5.15
2022-11-14T02:20:25.693Z,5.20
2022-11-14T02:23:11.261Z,5.65
2022-11-14T02:25:56.271Z,5.45
2022-11-14T02:28:41.331Z,5.57
2022-11-14T02:31:26.532Z,4.22
2022-11-14T02:34:11.462Z,4.70
2022-11-14T02:36:58.237Z,4.90
2022-11-14T02:39:43.275Z,5.10
2022-11-14T02:42:28.579Z,4.78
2022-11-14T02:45:13.857Z,5.38
2022-11-14T02:47:58.925Z,5.13
2022-11-14T02:50:44.339Z,5.20
2022-11-14T02:53:30.821Z,4.80
2022-11-14T02:56:15.992Z,5.05
2022-11-14T02:59:00.820Z,4.45
2022-11-14T03:01:46.294Z,4.93
2022-11-14T03:04:31.694Z,4.90
2022-11-14T03:07:17.071Z,5.05
2022-11-14T03:10:04.791Z,5.13
2022-11-14T03:12:53.445Z,5.25
2022-11-14T03:15:38.576Z,5.03
2022-11-14T03:18:23.960Z,6.72
2022-11-14T03:21:10.507Z,7.30
2022-11-14T03:23:55.844Z,7.38
2022-11-14T03:26:42.335Z,6.65
2022-11-14T03:29:27.514Z,5.15
2022-11-14T03:32:12.559Z,4.75
2022-11-14T03:34:57.671Z,4.65
2022-11-14T03:37:42.636Z,4.38
2022-11-14T03:40:27.911Z,4.80
2022-11-14T03:43:14.939Z,5.38
2022-11-14T03:46:00.254Z,4.72
2022-11-14T03:48:45.143Z,4.55
2022-11-14T03:51:30.059Z,4.25
2022-11-14T03:54:15.775Z,4.68
2022-11-14T03:57:00.984Z,4.97
2022-11-14T03:59:47.635Z,5.75
2022-11-14T04:02:32.532Z,4.78
2022-11-14T04:05:17.855Z,5.07
2022-11-14T04:08:04.926Z,4.90
2022-11-14T04:10:50.307Z,5.07
2022-11-14T04:13:35.306Z,4.60
2022-11-14T04:16:21.774Z,4.90
2022-11-14T04:19:06.876Z,4.13
2022-11-14T04:21:52.212Z,5.05
2022-11-14T04:24:37.015Z,5.03
2022-11-14T04:27:22.456Z,4.93
2022-11-14T04:30:08.687Z,4.93
2022-11-14T04:32:55.128Z,6.65
2022-11-14T04:35:40.501Z,5.82
2022-11-14T04:38:25.645Z,5.25
2022-11-14T04:41:10.772Z,5.07
2022-11-14T04:43:56.038Z,5.32
2022-11-14T04:46:41.082Z,4.90
2022-11-14T04:49:27.551Z,5.35
2022-11-14T04:52:12.404Z,5.63
2022-11-14T04:54:57.646Z,5.13
2022-11-14T04:57:42.592Z,5.13
2022-11-14T05:00:28.080Z,4.72
2022-11-14T05:03:12.984Z,5.20
2022-11-14T05:06:01.898Z,5.13
2022-11-14T05:08:46.854Z,4.95
2022-11-14T05:11:32.335Z,4.97
2022-11-14T05:14:17.515Z,4.80
2022-11-14T05:17:02.651Z,4.85
2022-11-14T05:19:47.644Z,5.25
2022-11-14T05:22:34.306Z,5.45
2022-11-14T05:25:19.686Z,5.75
2022-11-14T05:28:04.945Z,6.32
2022-11-14T05:30:49.818Z,6.05
2022-11-14T05:33:35.572Z,6.05
2022-11-14T05:36:20.620Z,5.57
2022-11-14T05:39:07.198Z,6.07
2022-11-14T05:41:52.285Z,6.90
2022-11-14T05:44:37.490Z,6.72
2022-11-14T05:47:22.762Z,6.20
2022-11-14T05:50:08.707Z,6.25
2022-11-14T05:52:55.851Z,5.90
2022-11-14T05:55:42.412Z,5.93
2022-11-14T05:58:28.343Z,5.88
2022-11-14T06:01:15.584Z,5.95
2022-11-14T06:04:00.651Z,5.45
2022-11-14T06:06:45.658Z,5.25
2022-11-14T06:09:30.995Z,5.80
2022-11-14T06:12:17.816Z,6.10
2022-11-14T06:15:03.479Z,5.28
2022-11-14T06:17:48.810Z,5.75
2022-11-14T06:20:33.915Z,5.38
2022-11-14T06:23:24.463Z,5.80
2022-11-14T06:26:19.577Z,3.92
2022-11-14T06:29:06.101Z,6.07
2022-11-14T06:31:51.318Z,5.45
2022-11-14T06:34:36.538Z,5.47
2022-11-14T06:37:21.663Z,6.28
2022-11-14T06:40:08.300Z,5.18
2022-11-14T06:42:55.425Z,6.15
2022-11-14T06:45:41.731Z,5.32
2022-11-14T06:48:27.179Z,4.80
2022-11-14T06:51:13.592Z,5.85
2022-11-14T06:53:58.961Z,5.95
2022-11-14T06:56:43.899Z,5.82
2022-11-14T06:59:29.175Z,5.60
2022-11-14T07:02:21.454Z,5.40
2022-11-14T07:05:07.417Z,6.03
2022-11-14T07:07:52.698Z,5.65
2022-11-14T07:10:38.141Z,6.50
2022-11-14T07:13:23.321Z,4.95
2022-11-14T07:16:08.410Z,5.60
2022-11-14T07:18:54.874Z,5.65
2022-11-14T07:21:40.174Z,6.45
2022-11-14T07:24:28.491Z,5.90
2022-11-14T07:27:13.426Z,5.63
2022-11-14T07:29:58.696Z,5.68
2022-11-14T07:32:43.890Z,5.30
2022-11-14T07:35:30.761Z,5.95
2022-11-14T07:38:16.180Z,5.53
2022-11-14T07:41:03.606Z,5.93
2022-11-14T07:43:48.786Z,6.40
2022-11-14T07:46:34.033Z,6.15
2022-11-14T07:49:19.244Z,5.82
2022-11-14T07:52:06.040Z,6.60
2022-11-14T07:54:51.313Z,6.30
2022-11-14T07:57:40.473Z,5.85
2022-11-14T08:00:28.194Z,5.93
2022-11-14T08:03:13.786Z,5.78
2022-11-14T08:06:02.671Z,7.13
2022-11-14T08:08:49.249Z,8.18
2022-11-14T08:11:35.478Z,9.68
2022-11-14T08:14:20.859Z,10.45
2022-11-14T08:17:06.291Z,11.90
2022-11-14T08:19:51.692Z,9.23
2022-11-14T08:22:36.654Z,8.70
2022-11-14T08:25:23.445Z,7.55
2022-11-14T08:28:08.903Z,8.38
2022-11-14T08:30:59.356Z,6.50
2022-11-14T08:33:44.443Z,7.18
2022-11-14T08:36:29.660Z,9.05
2022-11-14T08:39:15.039Z,11.15
2022-11-14T08:42:01.550Z,12.45
2022-11-14T08:44:51.657Z,11.50
2022-11-14T08:47:37.390Z,9.98
2022-11-14T08:50:22.667Z,10.32
2022-11-14T08:53:08.010Z,11.73
2022-11-14T08:55:53.136Z,10.73
2022-11-14T08:58:39.787Z,11.77
2022-11-14T09:01:24.683Z,12.10
2022-11-14T09:04:10.076Z,11.10
2022-11-14T09:06:55.345Z,12.23
2022-11-14T09:09:40.531Z,12.50
2022-11-14T09:12:25.728Z,11.00
2022-11-14T09:15:12.340Z,13.23
2022-11-14T09:17:58.178Z,13.38
2022-11-14T09:20:43.521Z,11.48
2022-11-14T09:23:29.347Z,12.75
2022-11-14T09:26:15.951Z,11.70
2022-11-14T09:29:01.112Z,12.65
2022-11-14T09:31:47.614Z,11.80
2022-11-14T09:34:32.781Z,10.73
2022-11-14T09:37:17.851Z,10.85
2022-11-14T09:40:03.405Z,11.75
2022-11-14T09:43:09.821Z,10.95
2022-11-14T09:45:54.924Z,11.30
2022-11-14T09:48:41.789Z,10.65
2022-11-14T09:51:30.261Z,10.07
2022-11-14T09:54:20.798Z,10.95
2022-11-14T09:57:14.448Z,11.00
2022-11-14T09:59:59.471Z,11.45
2022-11-14T10:02:56.598Z,11.02
2022-11-14T10:06:07.303Z,10.45
2022-11-14T10:09:24.826Z,11.27
2022-11-14T10:12:17.770Z,10.68
2022-11-14T10:15:14.371Z,11.23
2022-11-14T10:18:12.233Z,10.00
2022-11-14T10:21:08.994Z,10.70
2022-11-14T10:24:03.194Z,10.35
2022-11-14T10:26:57.848Z,10.93
2022-11-14T10:29:57.401Z,9.55
2022-11-14T10:32:58.248Z,10.65
2022-11-14T10:35:49.554Z,9.23
2022-11-14T10:38:41.166Z,10.50
2022-11-14T10:41:55.202Z,10.77
2022-11-14T10:44:39.640Z,10.73
2022-11-14T10:47:26.483Z,10.55
2022-11-14T10:50:19.311Z,11.02
2022-11-14T10:53:14.494Z,10.73
2022-11-14T10:56:05.504Z,11.68
2022-11-14T10:58:51.051Z,11.15
2022-11-14T11:01:38.721Z,11.20
2022-11-14T11:04:29.131Z,11.07
2022-11-14T11:07:20.679Z,11.88
2022-11-14T11:10:07.221Z,11.18
2022-11-14T11:12:54.359Z,11.40
2022-11-14T11:15:41.123Z,11.18
2022-11-14T11:18:28.636Z,11.93
2022-11-14T11:21:16.905Z,10.88
2022-11-14T11:24:02.401Z,10.93
2022-11-14T11:26:47.281Z,10.98
2022-11-14T11:29:33.903Z,10.50
2022-11-14T11:32:25.452Z,11.27
2022-11-14T11:35:13.070Z,10.77
2022-11-14T11:38:00.956Z,11.23
2022-11-14T11:40:48.682Z,11.93
2022-11-14T11:43:42.543Z,10.73
2022-11-14T11:46:37.286Z,11.02
2022-11-14T11:49:33.217Z,10.68
2022-11-14T11:52:27.762Z,11.23
2022-11-14T11:55:17.621Z,11.40
2022-11-14T11:58:06.256Z,11.98
2022-11-14T12:00:52.533Z,9.93
2022-11-14T12:03:40.855Z,11.60
2022-11-14T12:06:29.243Z,10.75
2022-11-14T12:09:17.955Z,10.98
2022-11-14T12:12:08.015Z,11.10
2022-11-14T12:15:10.763Z,10.30
2022-11-14T12:18:14.043Z,11.90
2022-11-14T12:21:11.186Z,10.75
2022-11-14T12:24:21.762Z,11.32
2022-11-14T12:27:20.707Z,10.48
2022-11-14T12:30:13.428Z,12.00
2022-11-14T12:33:03.857Z,11.65
2022-11-14T12:35:51.937Z,12.18
2022-11-14T12:38:44.889Z,12.75
2022-11-14T12:41:32.525Z,12.07
2022-11-14T12:44:30.866Z,12.70
2022-11-14T12:47:21.996Z,11.80
2022-11-14T12:50:31.717Z,11.98
2022-11-14T12:53:43.729Z,11.73
2022-11-14T12:56:53.932Z,11.67
2022-11-14T12:59:53.244Z,12.40
2022-11-14T13:03:07.389Z,11.52
2022-11-14T13:05:57.925Z,11.43
2022-11-14T13:09:19.304Z,11.45
2022-11-14T13:12:27.689Z,11.02
2022-11-14T13:15:24.761Z,11.32
2022-11-14T13:18:20.486Z,11.45
2022-11-14T13:21:15.825Z,10.68
2022-11-14T13:24:03.176Z,12.35
2022-11-14T13:26:51.259Z,11.35
2022-11-14T13:29:54.448Z,10.88
2022-11-14T13:32:54.352Z,11.35
2022-11-14T13:35:52.565Z,11.85
2022-11-14T13:39:13.326Z,10.82
2022-11-14T13:42:24.038Z,11.90
2022-11-14T13:45:33.643Z,10.32
2022-11-14T13:48:53.134Z,10.60
2022-11-14T13:51:43.753Z,10.98
2022-11-14T13:54:31.018Z,10.00
2022-11-14T13:57:28.371Z,10.80
2022-11-14T14:00:20.081Z,9.60
2022-11-14T14:03:28.192Z,10.05
2022-11-14T14:06:31.431Z,9.95
2022-11-14T14:09:26.212Z,9.50
2022-11-14T14:12:43.995Z,9.73
2022-11-14T14:15:34.190Z,10.20
2022-11-14T14:18:29.205Z,9.70
2022-11-14T14:21:27.132Z,10.10
2022-11-14T14:24:26.227Z,9.73
2022-11-14T14:27:20.572Z,9.63
2022-11-14T14:30:11.373Z,10.43
2022-11-14T14:33:09.604Z,10.68
2022-11-14T14:35:54.737Z,9.90
2022-11-14T14:38:40.010Z,9.93
2022-11-14T14:41:30.365Z,9.43
2022-11-14T14:44:21.964Z,9.50
2022-11-14T14:47:17.723Z,9.50
2022-11-14T14:50:05.390Z,9.93
2022-11-14T14:52:56.141Z,9.85
2022-11-14T14:55:41.061Z,9.68
2022-11-14T14:58:27.888Z,10.43
2022-11-14T15:01:15.266Z,9.23
2022-11-14T15:04:05.060Z,9.38
2022-11-14T15:06:50.377Z,9.90
2022-11-14T15:09:35.629Z,10.77
2022-11-14T15:12:21.889Z,8.93
2022-11-14T15:15:11.914Z,9.80
2022-11-14T15:17:59.807Z,10.25
2022-11-14T15:21:06.516Z,9.85
2022-11-14T15:23:58.836Z,9.88
2022-11-14T15:26:45.805Z,8.98
2022-11-14T15:29:32.267Z,9.80
2022-11-14T15:32:19.387Z,11.73
2022-11-14T15:35:09.376Z,9.27
2022-11-14T15:38:36.906Z,10.65
2022-11-14T15:41:17.929Z,9.93
2022-11-14T15:44:02.857Z,9.75
2022-11-14T15:46:48.818Z,9.55
2022-11-14T15:49:33.796Z,9.85
2022-11-14T15:52:22.857Z,9.18
2022-11-14T15:55:15.558Z,9.25
2022-11-14T15:58:26.613Z,9.50
2022-11-14T16:01:14.621Z,9.98
2022-11-14T16:03:59.870Z,8.95
2022-11-14T16:06:45.296Z,9.57
2022-11-14T16:09:30.672Z,9.82
2022-11-14T16:12:17.205Z,9.95
2022-11-14T16:15:02.079Z,12.65
2022-11-14T16:17:48.621Z,13.88
2022-11-14T16:20:36.066Z,13.27
2022-11-14T16:23:21.166Z,10.20
2022-11-14T16:26:06.385Z,12.18
2022-11-14T16:28:53.144Z,12.18
2022-11-14T16:31:38.388Z,9.30
2022-11-14T16:34:26.322Z,10.80
2022-11-14T16:37:13.095Z,11.77
2022-11-14T16:39:58.121Z,10.80
2022-11-14T16:42:44.068Z,10.43
2022-11-14T16:45:30.423Z,9.52
2022-11-14T16:48:15.563Z,10.55
2022-11-14T16:51:01.386Z,10.25
2022-11-14T16:53:46.334Z,10.35
2022-11-14T16:56:31.662Z,11.85
2022-11-14T16:59:16.571Z,11.68
2022-11-14T17:02:03.131Z,11.82
2022-11-14T17:04:48.616Z,10.60
2022-11-14T17:07:33.953Z,10.02
2022-11-14T17:10:19.370Z,18.88
2022-11-14T17:13:04.337Z,13.15
2022-11-14T17:15:49.273Z,10.77
2022-11-14T17:18:38.699Z,10.32
2022-11-14T17:21:24.538Z,12.75
2022-11-14T17:24:09.770Z,12.35
2022-11-14T17:26:54.981Z,11.30
2022-11-14T17:29:40.367Z,13.52
2022-11-14T17:32:25.269Z,17.23
2022-11-14T17:35:11.958Z,12.27
2022-11-14T17:38:00.353Z,11.48
2022-11-14T17:40:46.040Z,10.23
2022-11-14T17:43:37.259Z,10.60
2022-11-14T17:46:24.015Z,11.00
2022-11-14T17:49:09.209Z,13.73
2022-11-14T17:51:55.506Z,8.98
2022-11-14T17:54:40.577Z,9.20
2022-11-14T17:57:25.530Z,8.63
2022-11-14T18:00:11.835Z,9.63
2022-11-14T18:02:56.832Z,9.35
2022-11-14T18:05:41.978Z,9.93
2022-11-14T18:08:28.462Z,8.27
2022-11-14T18:11:15.843Z,9.77
2022-11-14T18:14:00.678Z,10.15
2022-11-14T18:17:11.141Z,9.15
2022-11-14T18:19:51.181Z,8.80
2022-11-14T18:22:36.435Z,8.27
2022-11-14T18:25:22.792Z,11.38
2022-11-14T18:28:08.100Z,7.78
2022-11-14T18:30:55.479Z,8.43
2022-11-14T18:33:42.075Z,8.27
2022-11-14T18:36:27.355Z,7.38
2022-11-14T18:39:12.726Z,8.55
2022-11-14T18:41:59.160Z,10.65
2022-11-14T18:44:44.266Z,8.05
2022-11-14T18:47:30.016Z,8.45
2022-11-14T18:50:15.501Z,8.18
2022-11-14T18:53:00.654Z,8.27
2022-11-14T18:55:46.129Z,8.13
2022-11-14T18:58:33.123Z,9.15
2022-11-14T19:01:20.490Z,23.05
2022-11-14T19:04:07.676Z,11.00
2022-11-14T19:06:52.956Z,12.13
2022-11-14T19:09:38.168Z,8.55
2022-11-14T19:12:22.989Z,8.63
2022-11-14T19:15:10.701Z,9.45
2022-11-14T19:17:56.021Z,7.20
2022-11-14T19:20:41.181Z,7.40
2022-11-14T19:23:26.646Z,9.45
2022-11-14T19:26:11.948Z,9.18
2022-11-14T19:29:01.654Z,11.15
2022-11-14T19:31:48.157Z,15.85
2022-11-14T19:34:33.361Z,13.57
2022-11-14T19:37:18.501Z,12.77
2022-11-14T19:40:04.558Z,13.57
2022-11-14T19:42:52.807Z,9.48
2022-11-14T19:45:37.851Z,7.25
2022-11-14T19:48:25.345Z,6.68
2022-11-14T19:51:13.096Z,7.78
2022-11-14T19:53:59.115Z,8.98
2022-11-14T19:56:44.386Z,7.13
2022-11-14T19:59:29.701Z,7.25
2022-11-14T20:02:14.760Z,9.02
2022-11-14T20:05:01.280Z,13.05
2022-11-14T20:07:46.257Z,6.88
2022-11-14T20:10:31.561Z,7.03
2022-11-14T20:13:16.501Z,6.68
2022-11-14T20:16:08.413Z,6.13
2022-11-14T20:18:58.778Z,6.20
2022-11-14T20:21:45.943Z,6.65
2022-11-14T20:24:30.912Z,7.07
2022-11-14T20:27:15.907Z,8.80
2022-11-14T20:30:01.488Z,7.78
2022-11-14T20:32:46.515Z,7.13
2022-11-14T20:35:34.737Z,7.35
2022-11-14T20:38:21.410Z,7.85
2022-11-14T20:41:06.648Z,7.78
2022-11-14T20:43:51.821Z,9.10
2022-11-14T20:46:36.882Z,8.20
2022-11-14T20:49:21.731Z,8.43
2022-11-14T20:52:06.885Z,8.10
2022-11-14T20:54:53.318Z,7.68
2022-11-14T20:57:38.930Z,6.90
2022-11-14T21:00:24.317Z,6.32
2022-11-14T21:03:10.127Z,5.70
2022-11-14T21:05:56.007Z,6.22
2022-11-14T21:08:41.812Z,5.40
2022-11-14T21:11:28.563Z,5.93
2022-11-14T21:14:13.727Z,5.28
2022-11-14T21:16:58.869Z,5.28
2022-11-14T21:19:43.889Z,5.50
2022-11-14T21:22:29.146Z,5.05
2022-11-14T21:25:14.301Z,5.63
2022-11-14T21:28:00.921Z,4.82
2022-11-14T21:30:46.359Z,5.43
2022-11-14T21:33:31.761Z,6.13
2022-11-14T21:39:23.659Z,19.33
2022-11-14T21:42:08.786Z,21.13
2022-11-14T21:44:54.997Z,9.70
2022-11-14T21:47:40.234Z,8.75
2022-11-14T21:50:25.073Z,12.07
2022-11-14T21:53:10.443Z,11.98
2022-11-14T21:55:55.447Z,11.73
2022-11-14T21:58:41.276Z,15.35
2022-11-14T22:01:27.783Z,8.05
2022-11-14T22:04:13.011Z,8.88
2022-11-14T22:06:58.613Z,23.05
2022-11-14T22:09:45.608Z,12.55
2022-11-14T22:12:31.827Z,11.73
2022-11-14T22:15:17.071Z,6.97
2022-11-14T22:18:03.888Z,7.28
2022-11-14T22:20:53.610Z,5.85
2022-11-14T22:23:38.950Z,6.82
2022-11-14T22:26:24.196Z,6.63
2022-11-14T22:29:09.732Z,7.05
2022-11-14T22:31:54.677Z,6.80
2022-11-14T22:34:41.264Z,8.52
2022-11-14T22:37:26.253Z,6.30
2022-11-14T22:40:12.479Z,7.07
2022-11-14T22:42:59.777Z,5.97
2022-11-14T22:45:51.177Z,6.13
2022-11-14T22:48:36.102Z,7.10
2022-11-14T22:51:24.016Z,6.20
2022-11-14T22:54:09.006Z,6.10
2022-11-14T22:56:53.965Z,5.40
2022-11-14T22:59:39.048Z,6.05
2022-11-14T23:02:24.322Z,7.65
2022-11-14T23:05:09.390Z,7.57
2022-11-14T23:07:56.978Z,6.50
2022-11-14T23:10:42.395Z,6.53
2022-11-14T23:13:27.681Z,6.00
2022-11-14T23:16:14.649Z,6.38
2022-11-14T23:19:03.125Z,6.57
2022-11-14T23:21:48.037Z,6.78
2022-11-14T23:24:34.736Z,6.28
2022-11-14T23:27:19.557Z,6.15
2022-11-14T23:30:05.606Z,6.20
2022-11-14T23:32:50.828Z,6.35
2022-11-14T23:35:36.203Z,6.40
2022-11-14T23:38:21.435Z,6.90
2022-11-14T23:41:14.692Z,6.05
2022-11-14T23:43:59.896Z,6.72
2022-11-14T23:46:45.124Z,6.80
2022-11-14T23:49:30.377Z,7.30
2022-11-14T23:52:15.309Z,7.63
2022-11-14T23:55:00.635Z,7.75
2022-11-14T23:57:47.124Z,7.50
